sensor_id;sensor_type;location;lat;lon;timestamp;pressure;altitude;pressure_sealevel;temperature;humidity
28448;BME280;15675;52.870;-1.416;2023-03-01T00:02:17;102960.53;;;6.38;100.00
28448;BME280;15675;52.870;-1.416;2023-03-01T00:04:43;102965.06;;;6.28;100.00
28448;BME280;15675;52.870;-1.416;2023-03-01T00:07:08;102960.41;;;6.37;100.00
28448;BME280;15675;52.870;-1.416;2023-03-01T00:09:36;102955.72;;;6.30;100.00
28448;BME280;15675;52.870;-1.416;2023-03-01T00:12:02;102965.03;;;6.43;100.00
28448;BME280;15675;52.870;-1.416;2023-03-01T00:14:27;102958.84;;;6.39;100.00
28448;BME280;15675;52.870;-1.416;2023-03-01T00:16:53;102963.69;;;6.49;100.00
28448;BME280;15675;52.870;-1.416;2023-03-01T00:19:19;102954.47;;;6.38;100.00
28448;BME280;15675;52.870;-1.416;2023-03-01T00:21:47;102953.50;;;6.36;100.00
28448;BME280;15675;52.870;-1.416;2023-03-01T00:24:13;102957.75;;;6.35;100.00
28448;BME280;15675;52.870;-1.416;2023-03-01T00:26:39;102961.63;;;6.27;100.00
28448;BME280;15675;52.870;-1.416;2023-03-01T00:29:05;102965.78;;;6.25;100.00
28448;BME280;15675;52.870;-1.416;2023-03-01T00:31:32;102969.69;;;6.33;100.00
28448;BME280;15675;52.870;-1.416;2023-03-01T00:34:00;102960.56;;;6.55;100.00
28448;BME280;15675;52.870;-1.416;2023-03-01T00:36:33;102971.03;;;6.42;100.00
28448;BME280;15675;52.870;-1.416;2023-03-01T00:38:59;102973.59;;;6.27;100.00
28448;BME280;15675;52.870;-1.416;2023-03-01T00:41:25;102971.09;;;6.28;100.00
28448;BME280;15675;52.870;-1.416;2023-03-01T00:43:55;102975.88;;;6.52;100.00
28448;BME280;15675;52.870;-1.416;2023-03-01T00:46:23;102974.59;;;5.99;100.00
28448;BME280;15675;52.870;-1.416;2023-03-01T00:48:49;102975.38;;;6.13;100.00
28448;BME280;15675;52.870;-1.416;2023-03-01T00:51:18;102965.81;;;6.10;100.00
28448;BME280;15675;52.870;-1.416;2023-03-01T00:53:45;102968.47;;;6.12;100.00
28448;BME280;15675;52.870;-1.416;2023-03-01T00:56:12;102965.72;;;6.09;100.00
28448;BME280;15675;52.870;-1.416;2023-03-01T00:58:38;102962.88;;;6.19;100.00
28448;BME280;15675;52.870;-1.416;2023-03-01T01:01:18;102974.09;;;6.51;100.00
28448;BME280;15675;52.870;-1.416;2023-03-01T01:06:22;102962.56;;;6.29;100.00
28448;BME280;15675;52.870;-1.416;2023-03-01T01:08:49;102979.16;;;6.03;100.00
28448;BME280;15675;52.870;-1.416;2023-03-01T01:11:15;102969.69;;;6.33;100.00
28448;BME280;15675;52.870;-1.416;2023-03-01T01:13:41;102974.66;;;6.45;100.00
28448;BME280;15675;52.870;-1.416;2023-03-01T01:16:07;102973.63;;;6.58;100.00
28448;BME280;15675;52.870;-1.416;2023-03-01T01:18:33;102966.47;;;6.37;100.00
28448;BME280;15675;52.870;-1.416;2023-03-01T01:21:04;102955.97;;;6.49;100.00
28448;BME280;15675;52.870;-1.416;2023-03-01T01:23:29;102959.78;;;6.41;100.00
28448;BME280;15675;52.870;-1.416;2023-03-01T01:25:55;102958.47;;;6.79;100.00
28448;BME280;15675;52.870;-1.416;2023-03-01T01:28:20;102943.44;;;6.72;100.00
28448;BME280;15675;52.870;-1.416;2023-03-01T01:30:46;102959.25;;;6.47;100.00
28448;BME280;15675;52.870;-1.416;2023-03-01T01:33:11;102947.09;;;6.29;100.00
28448;BME280;15675;52.870;-1.416;2023-03-01T01:35:37;102938.03;;;6.36;100.00
28448;BME280;15675;52.870;-1.416;2023-03-01T01:38:02;102938.16;;;6.54;100.00
28448;BME280;15675;52.870;-1.416;2023-03-01T01:40:28;102928.63;;;6.21;100.00
28448;BME280;15675;52.870;-1.416;2023-03-01T01:42:53;102925.03;;;6.34;100.00
28448;BME280;15675;52.870;-1.416;2023-03-01T01:45:32;102920.34;;;6.59;100.00
28448;BME280;15675;52.870;-1.416;2023-03-01T01:48:05;102917.03;;;6.61;100.00
28448;BME280;15675;52.870;-1.416;2023-03-01T01:50:33;102908.41;;;6.61;100.00
28448;BME280;15675;52.870;-1.416;2023-03-01T01:53:12;102907.94;;;6.68;100.00
28448;BME280;15675;52.870;-1.416;2023-03-01T01:55:44;102904.88;;;6.59;100.00
28448;BME280;15675;52.870;-1.416;2023-03-01T01:58:15;102902.75;;;6.83;100.00
28448;BME280;15675;52.870;-1.416;2023-03-01T02:00:43;102896.75;;;6.67;100.00
28448;BME280;15675;52.870;-1.416;2023-03-01T02:03:11;102890.25;;;6.59;100.00
28448;BME280;15675;52.870;-1.416;2023-03-01T02:05:53;102892.59;;;6.54;100.00
28448;BME280;15675;52.870;-1.416;2023-03-01T02:08:22;102885.13;;;6.13;100.00
28448;BME280;15675;52.870;-1.416;2023-03-01T02:10:50;102879.06;;;6.27;100.00
28448;BME280;15675;52.870;-1.416;2023-03-01T02:13:17;102885.59;;;6.37;100.00
28448;BME280;15675;52.870;-1.416;2023-03-01T02:15:42;102890.50;;;6.47;100.00
28448;BME280;15675;52.870;-1.416;2023-03-01T02:18:13;102878.53;;;6.18;100.00
28448;BME280;15675;52.870;-1.416;2023-03-01T02:23:05;102879.78;;;6.25;100.00
28448;BME280;15675;52.870;-1.416;2023-03-01T02:25:43;102881.09;;;6.33;100.00
28448;BME280;15675;52.870;-1.416;2023-03-01T02:30:45;102876.44;;;6.11;100.00
28448;BME280;15675;52.870;-1.416;2023-03-01T02:33:32;102865.72;;;6.19;100.00
28448;BME280;15675;52.870;-1.416;2023-03-01T02:36:26;102876.75;;;5.87;100.00
28448;BME280;15675;52.870;-1.416;2023-03-01T02:38:57;102864.94;;;5.91;100.00
28448;BME280;15675;52.870;-1.416;2023-03-01T02:41:25;102861.59;;;6.38;100.00
28448;BME280;15675;52.870;-1.416;2023-03-01T02:43:52;102858.06;;;6.21;100.00
28448;BME280;15675;52.870;-1.416;2023-03-01T02:46:21;102856.19;;;6.33;100.00
28448;BME280;15675;52.870;-1.416;2023-03-01T02:48:49;102857.13;;;6.04;100.00
28448;BME280;15675;52.870;-1.416;2023-03-01T02:51:40;102854.03;;;5.95;100.00
28448;BME280;15675;52.870;-1.416;2023-03-01T02:56:34;102856.59;;;5.95;100.00
28448;BME280;15675;52.870;-1.416;2023-03-01T02:59:00;102845.94;;;6.03;100.00
28448;BME280;15675;52.870;-1.416;2023-03-01T03:01:26;102848.28;;;5.99;100.00
28448;BME280;15675;52.870;-1.416;2023-03-01T03:04:03;102836.16;;;5.98;100.00
28448;BME280;15675;52.870;-1.416;2023-03-01T03:06:29;102842.13;;;6.28;100.00
28448;BME280;15675;52.870;-1.416;2023-03-01T03:08:54;102834.22;;;6.09;100.00
28448;BME280;15675;52.870;-1.416;2023-03-01T03:11:20;102841.19;;;6.11;100.00
28448;BME280;15675;52.870;-1.416;2023-03-01T03:13:46;102839.63;;;6.13;100.00
28448;BME280;15675;52.870;-1.416;2023-03-01T03:16:14;102833.34;;;6.25;100.00
28448;BME280;15675;52.870;-1.416;2023-03-01T03:18:39;102836.63;;;6.53;100.00
28448;BME280;15675;52.870;-1.416;2023-03-01T03:21:08;102837.41;;;6.36;100.00
28448;BME280;15675;52.870;-1.416;2023-03-01T03:23:35;102825.06;;;6.30;100.00
28448;BME280;15675;52.870;-1.416;2023-03-01T03:26:02;102830.16;;;6.29;100.00
28448;BME280;15675;52.870;-1.416;2023-03-01T03:28:30;102826.25;;;6.20;100.00
28448;BME280;15675;52.870;-1.416;2023-03-01T03:30:59;102822.41;;;6.29;100.00
28448;BME280;15675;52.870;-1.416;2023-03-01T03:33:29;102816.72;;;6.19;100.00
28448;BME280;15675;52.870;-1.416;2023-03-01T03:35:55;102823.44;;;6.32;100.00
28448;BME280;15675;52.870;-1.416;2023-03-01T03:38:20;102806.94;;;6.29;100.00
28448;BME280;15675;52.870;-1.416;2023-03-01T03:45:44;102803.00;;;5.89;100.00
28448;BME280;15675;52.870;-1.416;2023-03-01T03:48:09;102814.84;;;6.00;100.00
28448;BME280;15675;52.870;-1.416;2023-03-01T03:50:36;102800.25;;;5.86;100.00
28448;BME280;15675;52.870;-1.416;2023-03-01T03:53:06;102808.25;;;5.91;100.00
28448;BME280;15675;52.870;-1.416;2023-03-01T03:55:32;102810.56;;;6.01;100.00
28448;BME280;15675;52.870;-1.416;2023-03-01T03:58:00;102809.28;;;5.94;100.00
28448;BME280;15675;52.870;-1.416;2023-03-01T04:00:36;102806.63;;;5.93;100.00
28448;BME280;15675;52.870;-1.416;2023-03-01T04:03:02;102810.03;;;5.92;100.00
28448;BME280;15675;52.870;-1.416;2023-03-01T04:05:28;102807.16;;;5.87;100.00
28448;BME280;15675;52.870;-1.416;2023-03-01T04:07:54;102797.78;;;5.73;100.00
28448;BME280;15675;52.870;-1.416;2023-03-01T04:10:31;102804.09;;;5.78;100.00
28448;BME280;15675;52.870;-1.416;2023-03-01T04:12:56;102803.63;;;5.85;100.00
28448;BME280;15675;52.870;-1.416;2023-03-01T04:15:23;102793.16;;;5.67;100.00
28448;BME280;15675;52.870;-1.416;2023-03-01T04:17:50;102795.03;;;5.84;100.00
28448;BME280;15675;52.870;-1.416;2023-03-01T04:20:22;102793.53;;;5.73;100.00
28448;BME280;15675;52.870;-1.416;2023-03-01T04:23:04;102789.94;;;5.86;100.00
28448;BME280;15675;52.870;-1.416;2023-03-01T04:28:30;102796.06;;;5.88;100.00
28448;BME280;15675;52.870;-1.416;2023-03-01T04:30:57;102795.81;;;5.83;100.00
28448;BME280;15675;52.870;-1.416;2023-03-01T04:33:24;102788.78;;;5.96;100.00
28448;BME280;15675;52.870;-1.416;2023-03-01T04:35:49;102789.84;;;5.99;100.00
28448;BME280;15675;52.870;-1.416;2023-03-01T04:38:19;102782.47;;;5.91;100.00
28448;BME280;15675;52.870;-1.416;2023-03-01T04:40:44;102779.00;;;5.90;100.00
28448;BME280;15675;52.870;-1.416;2023-03-01T04:43:11;102777.84;;;6.00;100.00
28448;BME280;15675;52.870;-1.416;2023-03-01T04:45:39;102769.56;;;5.91;100.00
28448;BME280;15675;52.870;-1.416;2023-03-01T04:48:05;102765.22;;;6.04;100.00
28448;BME280;15675;52.870;-1.416;2023-03-01T04:50:31;102768.03;;;5.94;100.00
28448;BME280;15675;52.870;-1.416;2023-03-01T04:52:57;102767.72;;;6.03;100.00
28448;BME280;15675;52.870;-1.416;2023-03-01T04:55:27;102767.06;;;5.61;100.00
28448;BME280;15675;52.870;-1.416;2023-03-01T04:57:53;102770.88;;;5.67;100.00
28448;BME280;15675;52.870;-1.416;2023-03-01T05:00:19;102767.72;;;5.88;100.00
28448;BME280;15675;52.870;-1.416;2023-03-01T05:05:31;102775.69;;;5.93;100.00
28448;BME280;15675;52.870;-1.416;2023-03-01T05:07:59;102770.53;;;5.93;100.00
28448;BME280;15675;52.870;-1.416;2023-03-01T05:10:27;102772.31;;;5.94;100.00
28448;BME280;15675;52.870;-1.416;2023-03-01T05:12:54;102774.31;;;5.83;100.00
28448;BME280;15675;52.870;-1.416;2023-03-01T05:15:23;102778.53;;;6.12;100.00
28448;BME280;15675;52.870;-1.416;2023-03-01T05:17:51;102770.78;;;5.66;100.00
28448;BME280;15675;52.870;-1.416;2023-03-01T05:20:18;102774.88;;;5.77;100.00
28448;BME280;15675;52.870;-1.416;2023-03-01T05:22:49;102770.78;;;5.66;100.00
28448;BME280;15675;52.870;-1.416;2023-03-01T05:25:14;102778.91;;;5.88;100.00
28448;BME280;15675;52.870;-1.416;2023-03-01T05:27:40;102763.34;;;5.87;100.00
28448;BME280;15675;52.870;-1.416;2023-03-01T05:30:06;102770.34;;;5.73;100.00
28448;BME280;15675;52.870;-1.416;2023-03-01T05:32:43;102765.09;;;5.72;100.00
28448;BME280;15675;52.870;-1.416;2023-03-01T05:35:10;102768.03;;;6.09;100.00
28448;BME280;15675;52.870;-1.416;2023-03-01T05:37:43;102764.88;;;5.98;100.00
28448;BME280;15675;52.870;-1.416;2023-03-01T05:40:11;102757.69;;;5.78;100.00
28448;BME280;15675;52.870;-1.416;2023-03-01T05:42:53;102764.19;;;5.86;100.00
28448;BME280;15675;52.870;-1.416;2023-03-01T05:45:19;102771.66;;;5.66;100.00
28448;BME280;15675;52.870;-1.416;2023-03-01T05:47:48;102767.84;;;5.75;100.00
28448;BME280;15675;52.870;-1.416;2023-03-01T05:50:36;102761.19;;;5.63;100.00
28448;BME280;15675;52.870;-1.416;2023-03-01T05:53:05;102766.53;;;5.51;100.00
28448;BME280;15675;52.870;-1.416;2023-03-01T05:55:31;102769.97;;;5.67;100.00
28448;BME280;15675;52.870;-1.416;2023-03-01T05:57:59;102771.97;;;5.56;100.00
28448;BME280;15675;52.870;-1.416;2023-03-01T06:00:25;102768.00;;;5.63;100.00
28448;BME280;15675;52.870;-1.416;2023-03-01T06:02:51;102766.47;;;5.81;100.00
28448;BME280;15675;52.870;-1.416;2023-03-01T06:05:18;102759.09;;;5.87;100.00
28448;BME280;15675;52.870;-1.416;2023-03-01T06:07:44;102750.44;;;5.70;100.00
28448;BME280;15675;52.870;-1.416;2023-03-01T06:10:10;102756.69;;;5.91;100.00
28448;BME280;15675;52.870;-1.416;2023-03-01T06:12:38;102756.34;;;5.84;100.00
28448;BME280;15675;52.870;-1.416;2023-03-01T06:15:05;102755.16;;;5.94;100.00
28448;BME280;15675;52.870;-1.416;2023-03-01T06:17:33;102753.41;;;5.93;100.00
28448;BME280;15675;52.870;-1.416;2023-03-01T06:20:04;102759.06;;;6.02;100.00
28448;BME280;15675;52.870;-1.416;2023-03-01T06:22:30;102757.00;;;5.97;100.00
28448;BME280;15675;52.870;-1.416;2023-03-01T06:24:55;102765.47;;;5.94;100.00
28448;BME280;15675;52.870;-1.416;2023-03-01T06:27:21;102760.38;;;6.11;100.00
28448;BME280;15675;52.870;-1.416;2023-03-01T06:29:46;102755.31;;;6.12;100.00
28448;BME280;15675;52.870;-1.416;2023-03-01T06:32:12;102762.19;;;6.28;100.00
28448;BME280;15675;52.870;-1.416;2023-03-01T06:34:38;102767.81;;;6.04;100.00
28448;BME280;15675;52.870;-1.416;2023-03-01T06:37:03;102762.72;;;6.06;100.00
28448;BME280;15675;52.870;-1.416;2023-03-01T06:39:31;102766.88;;;6.04;100.00
28448;BME280;15675;52.870;-1.416;2023-03-01T06:41:56;102768.72;;;6.38;100.00
28448;BME280;15675;52.870;-1.416;2023-03-01T06:44:22;102768.44;;;6.17;100.00
28448;BME280;15675;52.870;-1.416;2023-03-01T06:46:47;102761.47;;;6.31;100.00
28448;BME280;15675;52.870;-1.416;2023-03-01T06:49:13;102764.03;;;6.14;100.00
28448;BME280;15675;52.870;-1.416;2023-03-01T06:51:38;102761.09;;;6.08;100.00
28448;BME280;15675;52.870;-1.416;2023-03-01T06:54:04;102762.34;;;6.15;100.00
28448;BME280;15675;52.870;-1.416;2023-03-01T06:56:31;102759.34;;;6.07;100.00
28448;BME280;15675;52.870;-1.416;2023-03-01T06:58:57;102766.56;;;5.98;100.00
28448;BME280;15675;52.870;-1.416;2023-03-01T07:01:22;102755.41;;;5.67;100.00
28448;BME280;15675;52.870;-1.416;2023-03-01T07:03:48;102745.03;;;5.51;100.00
28448;BME280;15675;52.870;-1.416;2023-03-01T07:06:14;102752.28;;;5.73;100.00
28448;BME280;15675;52.870;-1.416;2023-03-01T07:08:39;102755.50;;;5.69;100.00
28448;BME280;15675;52.870;-1.416;2023-03-01T07:11:05;102756.16;;;5.81;100.00
28448;BME280;15675;52.870;-1.416;2023-03-01T07:13:31;102758.66;;;5.80;100.00
28448;BME280;15675;52.870;-1.416;2023-03-01T07:15:57;102762.16;;;6.12;100.00
28448;BME280;15675;52.870;-1.416;2023-03-01T07:18:22;102767.16;;;6.09;100.00
28448;BME280;15675;52.870;-1.416;2023-03-01T07:20:48;102768.44;;;6.00;100.00
28448;BME280;15675;52.870;-1.416;2023-03-01T07:23:13;102771.66;;;5.66;100.00
28448;BME280;15675;52.870;-1.416;2023-03-01T07:25:39;102776.28;;;5.72;100.00
28448;BME280;15675;52.870;-1.416;2023-03-01T07:28:04;102774.56;;;5.87;100.00
28448;BME280;15675;52.870;-1.416;2023-03-01T07:30:30;102773.94;;;5.92;100.00
28448;BME280;15675;52.870;-1.416;2023-03-01T07:32:56;102776.94;;;6.14;100.00
28448;BME280;15675;52.870;-1.416;2023-03-01T07:35:24;102774.34;;;6.14;100.00
28448;BME280;15675;52.870;-1.416;2023-03-01T07:37:50;102774.25;;;6.13;100.00
28448;BME280;15675;52.870;-1.416;2023-03-01T07:40:16;102775.88;;;5.96;100.00
28448;BME280;15675;52.870;-1.416;2023-03-01T07:42:42;102770.88;;;5.67;100.00
28448;BME280;15675;52.870;-1.416;2023-03-01T07:45:08;102773.41;;;5.97;100.00
28448;BME280;15675;52.870;-1.416;2023-03-01T07:47:34;102780.19;;;5.65;100.00
28448;BME280;15675;52.870;-1.416;2023-03-01T07:50:00;102764.63;;;5.79;100.00
28448;BME280;15675;52.870;-1.416;2023-03-01T07:52:26;102777.91;;;5.55;100.00
28448;BME280;15675;52.870;-1.416;2023-03-01T07:54:52;102776.44;;;5.75;100.00
28448;BME280;15675;52.870;-1.416;2023-03-01T07:57:17;102781.78;;;5.78;100.00
28448;BME280;15675;52.870;-1.416;2023-03-01T07:59:43;102787.63;;;5.91;100.00
28448;BME280;15675;52.870;-1.416;2023-03-01T08:02:10;102772.16;;;5.91;100.00
28448;BME280;15675;52.870;-1.416;2023-03-01T08:04:36;102770.22;;;5.86;100.00
28448;BME280;15675;52.870;-1.416;2023-03-01T08:07:04;102761.56;;;6.01;100.00
28448;BME280;15675;52.870;-1.416;2023-03-01T08:09:30;102776.69;;;5.95;100.00
28448;BME280;15675;52.870;-1.416;2023-03-01T08:11:56;102777.53;;;5.64;100.00
28448;BME280;15675;52.870;-1.416;2023-03-01T08:14:24;102780.09;;;5.79;100.00
28448;BME280;15675;52.870;-1.416;2023-03-01T08:16:50;102774.81;;;6.07;100.00
28448;BME280;15675;52.870;-1.416;2023-03-01T08:19:16;102780.84;;;5.93;100.00
28448;BME280;15675;52.870;-1.416;2023-03-01T08:21:41;102786.19;;;5.96;100.00
28448;BME280;15675;52.870;-1.416;2023-03-01T08:24:07;102783.72;;;6.29;100.00
28448;BME280;15675;52.870;-1.416;2023-03-01T08:26:35;102776.38;;;6.20;100.00
28448;BME280;15675;52.870;-1.416;2023-03-01T08:29:01;102793.34;;;6.16;100.00
28448;BME280;15675;52.870;-1.416;2023-03-01T08:31:31;102782.41;;;6.20;100.00
28448;BME280;15675;52.870;-1.416;2023-03-01T08:33:59;102793.41;;;6.33;100.00
28448;BME280;15675;52.870;-1.416;2023-03-01T08:36:27;102790.91;;;6.51;100.00
28448;BME280;15675;52.870;-1.416;2023-03-01T08:38:53;102788.97;;;6.47;100.00
28448;BME280;15675;52.870;-1.416;2023-03-01T08:41:19;102789.78;;;6.46;100.00
28448;BME280;15675;52.870;-1.416;2023-03-01T08:43:45;102792.03;;;6.39;100.00
28448;BME280;15675;52.870;-1.416;2023-03-01T08:46:11;102794.13;;;6.30;100.00
28448;BME280;15675;52.870;-1.416;2023-03-01T08:48:37;102784.50;;;6.28;100.00
28448;BME280;15675;52.870;-1.416;2023-03-01T08:51:14;102787.75;;;6.56;100.00
28448;BME280;15675;52.870;-1.416;2023-03-01T08:53:41;102791.38;;;6.27;100.00
28448;BME280;15675;52.870;-1.416;2023-03-01T08:56:08;102790.81;;;6.49;100.00
28448;BME280;15675;52.870;-1.416;2023-03-01T08:58:34;102783.44;;;6.24;100.00
28448;BME280;15675;52.870;-1.416;2023-03-01T09:00:59;102779.75;;;6.35;100.00
28448;BME280;15675;52.870;-1.416;2023-03-01T09:03:26;102771.81;;;6.47;100.00
28448;BME280;15675;52.870;-1.416;2023-03-01T09:05:52;102786.53;;;6.33;100.00
28448;BME280;15675;52.870;-1.416;2023-03-01T09:08:19;102785.56;;;6.31;100.00
28448;BME280;15675;52.870;-1.416;2023-03-01T09:10:45;102772.13;;;6.53;100.00
28448;BME280;15675;52.870;-1.416;2023-03-01T09:13:11;102769.94;;;6.78;100.00
28448;BME280;15675;52.870;-1.416;2023-03-01T09:15:37;102765.09;;;6.51;100.00
28448;BME280;15675;52.870;-1.416;2023-03-01T09:18:03;102767.94;;;6.39;100.00
28448;BME280;15675;52.870;-1.416;2023-03-01T09:20:30;102762.69;;;6.54;100.00
28448;BME280;15675;52.870;-1.416;2023-03-01T09:22:57;102769.34;;;6.34;100.00
28448;BME280;15675;52.870;-1.416;2023-03-01T09:25:23;102758.41;;;6.21;100.00
28448;BME280;15675;52.870;-1.416;2023-03-01T09:27:52;102754.34;;;6.27;100.00
28448;BME280;15675;52.870;-1.416;2023-03-01T09:30:18;102762.13;;;6.43;100.00
28448;BME280;15675;52.870;-1.416;2023-03-01T09:32:44;102760.41;;;6.44;100.00
28448;BME280;15675;52.870;-1.416;2023-03-01T09:35:11;102751.31;;;6.50;100.00
28448;BME280;15675;52.870;-1.416;2023-03-01T09:37:37;102747.13;;;6.69;100.00
28448;BME280;15675;52.870;-1.416;2023-03-01T09:40:05;102753.34;;;6.56;100.00
28448;BME280;15675;52.870;-1.416;2023-03-01T09:42:33;102747.53;;;6.60;100.00
28448;BME280;15675;52.870;-1.416;2023-03-01T09:45:03;102748.25;;;6.57;100.00
28448;BME280;15675;52.870;-1.416;2023-03-01T09:47:33;102738.09;;;6.77;100.00
28448;BME280;15675;52.870;-1.416;2023-03-01T09:50:15;102744.19;;;6.79;100.00
28448;BME280;15675;52.870;-1.416;2023-03-01T09:55:31;102740.97;;;6.83;100.00
28448;BME280;15675;52.870;-1.416;2023-03-01T10:00:49;102733.56;;;6.56;100.00
28448;BME280;15675;52.870;-1.416;2023-03-01T10:03:34;102725.25;;;6.62;100.00
28448;BME280;15675;52.870;-1.416;2023-03-01T10:14:03;102706.63;;;6.68;100.00
28448;BME280;15675;52.870;-1.416;2023-03-01T10:16:53;102702.97;;;6.81;100.00
28448;BME280;15675;52.870;-1.416;2023-03-01T10:19:29;102722.75;;;6.64;100.00
28448;BME280;15675;52.870;-1.416;2023-03-01T10:22:03;102704.94;;;6.68;100.00
28448;BME280;15675;52.870;-1.416;2023-03-01T10:24:32;102717.25;;;6.74;100.00
28448;BME280;15675;52.870;-1.416;2023-03-01T10:27:22;102696.53;;;6.72;100.00
28448;BME280;15675;52.870;-1.416;2023-03-01T10:32:14;102696.31;;;6.68;100.00
28448;BME280;15675;52.870;-1.416;2023-03-01T10:34:40;102684.63;;;6.93;100.00
28448;BME280;15675;52.870;-1.416;2023-03-01T10:37:15;102687.38;;;6.96;100.00
28448;BME280;15675;52.870;-1.416;2023-03-01T10:39:58;102680.75;;;7.19;100.00
28448;BME280;15675;52.870;-1.416;2023-03-01T10:42:39;102675.06;;;7.08;100.00
28448;BME280;15675;52.870;-1.416;2023-03-01T10:47:40;102673.13;;;7.04;100.00
28448;BME280;15675;52.870;-1.416;2023-03-01T10:50:23;102677.13;;;7.15;100.00
28448;BME280;15675;52.870;-1.416;2023-03-01T10:53:00;102669.03;;;7.25;100.00
28448;BME280;15675;52.870;-1.416;2023-03-01T10:55:37;102667.78;;;7.17;100.00
28448;BME280;15675;52.870;-1.416;2023-03-01T10:58:17;102672.47;;;7.08;100.00
28448;BME280;15675;52.870;-1.416;2023-03-01T11:00:57;102669.84;;;7.24;100.00
28448;BME280;15675;52.870;-1.416;2023-03-01T11:03:26;102662.25;;;7.83;100.00
28448;BME280;15675;52.870;-1.416;2023-03-01T11:06:00;102657.28;;;7.88;100.00
28448;BME280;15675;52.870;-1.416;2023-03-01T11:08:44;102640.53;;;7.42;100.00
28448;BME280;15675;52.870;-1.416;2023-03-01T11:11:21;102646.84;;;7.67;100.00
28448;BME280;15675;52.870;-1.416;2023-03-01T11:18:59;102633.56;;;7.41;100.00
28448;BME280;15675;52.870;-1.416;2023-03-01T11:21:26;102637.41;;;7.87;100.00
28448;BME280;15675;52.870;-1.416;2023-03-01T11:23:53;102633.03;;;7.66;100.00
28448;BME280;15675;52.870;-1.416;2023-03-01T11:26:19;102630.38;;;7.65;100.00
28448;BME280;15675;52.870;-1.416;2023-03-01T11:28:50;102627.13;;;7.69;100.00
28448;BME280;15675;52.870;-1.416;2023-03-01T11:31:17;102617.44;;;7.65;100.00
28448;BME280;15675;52.870;-1.416;2023-03-01T11:34:09;102617.31;;;7.62;100.00
28448;BME280;15675;52.870;-1.416;2023-03-01T11:39:40;102625.50;;;7.90;100.00
28448;BME280;15675;52.870;-1.416;2023-03-01T11:44:37;102620.53;;;7.95;100.00
28448;BME280;15675;52.870;-1.416;2023-03-01T12:08:46;102568.41;;;8.46;100.00
28448;BME280;15675;52.870;-1.416;2023-03-01T12:17:12;102545.06;;;8.04;100.00
28448;BME280;15675;52.870;-1.416;2023-03-01T12:27:57;102557.28;;;8.08;100.00
28448;BME280;15675;52.870;-1.416;2023-03-01T12:30:34;102559.00;;;7.88;100.00
28448;BME280;15675;52.870;-1.416;2023-03-01T12:33:12;102551.09;;;8.24;100.00
28448;BME280;15675;52.870;-1.416;2023-03-01T12:38:51;102540.78;;;8.04;100.00
28448;BME280;15675;52.870;-1.416;2023-03-01T12:44:04;102525.47;;;8.30;100.00
28448;BME280;15675;52.870;-1.416;2023-03-01T12:46:45;102537.03;;;8.38;100.00
28448;BME280;15675;52.870;-1.416;2023-03-01T12:51:54;102529.69;;;7.68;100.00
28448;BME280;15675;52.870;-1.416;2023-03-01T12:54:31;102517.53;;;7.46;100.00
28448;BME280;15675;52.870;-1.416;2023-03-01T13:03:00;102492.03;;;7.73;100.00
28448;BME280;15675;52.870;-1.416;2023-03-01T13:05:39;102500.28;;;8.26;100.00
28448;BME280;15675;52.870;-1.416;2023-03-01T13:08:19;102478.59;;;8.22;100.00
28448;BME280;15675;52.870;-1.416;2023-03-01T13:10:50;102474.47;;;8.27;100.00
28448;BME280;15675;52.870;-1.416;2023-03-01T13:13:25;102479.00;;;8.33;100.00
28448;BME280;15675;52.870;-1.416;2023-03-01T13:15:51;102478.59;;;8.22;100.00
28448;BME280;15675;52.870;-1.416;2023-03-01T13:20:52;102467.50;;;8.46;100.00
28448;BME280;15675;52.870;-1.416;2023-03-01T13:26:16;102445.94;;;7.84;100.00
28448;BME280;15675;52.870;-1.416;2023-03-01T13:33:53;102453.53;;;8.00;100.00
28448;BME280;15675;52.870;-1.416;2023-03-01T13:49:57;102426.09;;;8.46;100.00
28448;BME280;15675;52.870;-1.416;2023-03-01T13:52:43;102420.19;;;8.29;100.00
28448;BME280;15675;52.870;-1.416;2023-03-01T13:57:46;102399.09;;;8.62;100.00
28448;BME280;15675;52.870;-1.416;2023-03-01T14:00:32;102393.50;;;8.51;100.00
28448;BME280;15675;52.870;-1.416;2023-03-01T14:05:26;102387.81;;;8.39;100.00
28448;BME280;15675;52.870;-1.416;2023-03-01T14:07:51;102392.59;;;8.51;100.00
28448;BME280;15675;52.870;-1.416;2023-03-01T14:10:17;102390.75;;;8.25;100.00
28448;BME280;15675;52.870;-1.416;2023-03-01T14:15:42;102385.22;;;7.74;100.00
28448;BME280;15675;52.870;-1.416;2023-03-01T14:18:20;102398.38;;;7.59;100.00
28448;BME280;15675;52.870;-1.416;2023-03-01T14:20:47;102389.00;;;8.03;100.00
28448;BME280;15675;52.870;-1.416;2023-03-01T14:23:22;102394.78;;;7.76;100.00
28448;BME280;15675;52.870;-1.416;2023-03-01T14:25:50;102409.81;;;7.45;100.00
28448;BME280;15675;52.870;-1.416;2023-03-01T14:28:21;102402.63;;;7.37;100.00
28448;BME280;15675;52.870;-1.416;2023-03-01T14:30:53;102399.44;;;7.23;100.00
28448;BME280;15675;52.870;-1.416;2023-03-01T14:33:28;102394.13;;;7.40;100.00
28448;BME280;15675;52.870;-1.416;2023-03-01T14:36:03;102382.00;;;7.58;100.00
28448;BME280;15675;52.870;-1.416;2023-03-01T14:38:37;102377.31;;;7.50;100.00
28448;BME280;15675;52.870;-1.416;2023-03-01T14:41:16;102369.63;;;7.72;100.00
28448;BME280;15675;52.870;-1.416;2023-03-01T14:43:46;102364.34;;;7.69;100.00
28448;BME280;15675;52.870;-1.416;2023-03-01T14:46:26;102364.56;;;7.97;100.00
28448;BME280;15675;52.870;-1.416;2023-03-01T14:49:09;102358.88;;;7.83;100.00
28448;BME280;15675;52.870;-1.416;2023-03-01T14:51:49;102354.97;;;8.15;100.00
28448;BME280;15675;52.870;-1.416;2023-03-01T14:57:14;102341.88;;;7.89;100.00
28448;BME280;15675;52.870;-1.416;2023-03-01T14:59:42;102345.38;;;7.90;100.00
28448;BME280;15675;52.870;-1.416;2023-03-01T15:02:13;102330.22;;;8.22;100.00
28448;BME280;15675;52.870;-1.416;2023-03-01T15:04:45;102339.16;;;8.07;100.00
28448;BME280;15675;52.870;-1.416;2023-03-01T15:07:12;102331.34;;;8.06;100.00